Time;durP1;ratioP1;P1;durP2;ratioP2;P2;SDS_P1;SDS_P2;PMS_P1;PMS_P2;Temp;Humidity;BMP_temperature;BMP_pressure;BME280_temperature;BME280_humidity;BME280_pressure;Samples;Min_cycle;Max_cycle;Signal;HPM_P1;HPM_P2
2021/12/13 00:00:06;;;;;;;11.30;5.93;;;;;;;-0.41;85.73;101021.28;6749201;26;35305;-68
2021/12/13 00:03:30;;;;;;;11.85;5.85;;;;;;;-0.41;85.83;101023.87;6749084;26;34605;-68
2021/12/13 00:06:48;;;;;;;15.63;7.07;;;;;;;-0.56;86.71;101034.19;6749261;26;34042;-68
2021/12/13 00:09:55;;;;;;;12.68;6.03;;;;;;;-0.60;87.09;101026.63;6749230;26;33923;-68
2021/12/13 00:13:07;;;;;;;13.73;5.97;;;;;;;-0.70;87.39;101026.25;6749476;26;34038;-68
2021/12/13 00:16:12;;;;;;;13.20;6.07;;;;;;;-0.64;86.97;101025.09;6749643;26;32893;-68
2021/12/13 00:19:23;;;;;;;15.02;6.70;;;;;;;-0.70;87.44;101018.44;6749095;26;34798;-68
2021/12/13 00:22:45;;;;;;;14.38;6.05;;;;;;;-0.75;87.80;101023.06;6749440;26;33865;-67
2021/12/13 00:25:51;;;;;;;13.70;6.50;;;;;;;-0.72;87.49;101025.50;6749292;26;34192;-68
2021/12/13 00:28:54;;;;;;;12.57;6.32;;;;;;;-0.79;88.02;101018.94;6749181;26;33963;-68
2021/12/13 00:32:13;;;;;;;13.50;5.97;;;;;;;-0.79;87.92;101010.28;6748989;26;34041;-68
2021/12/13 00:35:27;;;;;;;12.85;6.57;;;;;;;-0.82;88.04;101010.44;6749257;26;35381;-68
2021/12/13 00:38:36;;;;;;;15.52;6.30;;;;;;;-0.82;88.01;101010.44;6749094;26;33928;-68
2021/12/13 00:41:43;;;;;;;11.98;5.87;;;;;;;-0.76;87.68;101016.16;6749050;26;33939;-68
2021/12/13 00:44:51;;;;;;;12.10;6.30;;;;;;;-0.79;87.86;101021.53;6748888;26;34158;-68
2021/12/13 00:47:53;;;;;;;13.43;6.18;;;;;;;-0.81;87.70;101025.12;6749068;26;34561;-67
2021/12/13 00:51:27;;;;;;;14.20;6.68;;;;;;;-0.74;87.52;101027.34;6748925;26;34049;-68
2021/12/13 00:54:37;;;;;;;16.20;6.30;;;;;;;-0.74;87.44;101019.53;6740925;26;34816;-66
2021/12/13 00:57:47;;;;;;;14.98;6.43;;;;;;;-0.93;88.58;101032.69;6749155;26;34978;-68
2021/12/13 01:00:58;;;;;;;13.53;7.10;;;;;;;-0.84;88.06;101033.97;6748890;26;33404;-68
2021/12/13 01:04:05;;;;;;;14.93;6.65;;;;;;;-0.85;88.03;101032.28;6748761;26;34092;-68
2021/12/13 01:07:30;;;;;;;14.87;6.85;;;;;;;-0.96;88.87;101050.19;6748820;26;33930;-67
2021/12/13 01:10:42;;;;;;;12.82;6.03;;;;;;;-0.91;88.37;101037.78;6749183;26;34078;-65
2021/12/13 01:14:06;;;;;;;13.30;7.10;;;;;;;-0.97;88.92;101040.72;6748854;26;34404;-66
2021/12/13 01:17:39;;;;;;;14.20;7.30;;;;;;;-0.87;88.40;101041.91;6748865;26;34136;-66
2021/12/13 01:28:03;;;;;;;17.58;7.62;;;;;;;-0.95;88.59;101047.53;6748714;26;35210;-66
2021/12/13 01:31:10;;;;;;;14.63;7.95;;;;;;;-0.97;89.50;101051.97;6748361;26;35595;-66
2021/12/13 01:34:16;;;;;;;16.05;7.68;;;;;;;-0.93;88.76;101052.66;6748463;26;34146;-66
2021/12/13 01:37:20;;;;;;;15.88;7.87;;;;;;;-0.93;88.79;101057.87;6748979;26;34069;-66
2021/12/13 01:40:28;;;;;;;17.73;8.38;;;;;;;-1.05;89.28;101054.13;6748615;26;34403;-66
2021/12/13 01:43:31;;;;;;;12.82;7.85;;;;;;;-1.17;90.32;101053.91;6748553;26;34171;-66
2021/12/13 01:46:36;;;;;;;12.85;6.68;;;;;;;-1.19;89.98;101053.97;6748706;26;34780;-66
2021/12/13 01:49:46;;;;;;;11.20;6.45;;;;;;;-1.15;89.84;101046.84;6749044;26;34330;-66
2021/12/13 01:52:53;;;;;;;14.50;8.15;;;;;;;-1.13;89.82;101048.47;6748518;26;35273;-66
2021/12/13 01:55:59;;;;;;;11.93;6.18;;;;;;;-1.08;89.29;101056.91;6748926;26;33957;-66
2021/12/13 01:59:16;;;;;;;13.32;6.85;;;;;;;-0.95;88.72;101051.91;6748524;26;33947;-68
2021/12/13 02:02:30;;;;;;;16.67;7.43;;;;;;;-1.01;89.04;101063.47;6748326;26;34897;-66
2021/12/13 02:05:33;;;;;;;15.05;7.03;;;;;;;-1.11;89.17;101057.03;6748535;26;34464;-66
2021/12/13 02:08:36;;;;;;;13.45;6.43;;;;;;;-1.20;89.98;101054.03;6748392;26;34613;-65
2021/12/13 02:11:42;;;;;;;14.40;6.93;;;;;;;-1.21;90.11;101042.78;6748718;26;33956;-66
2021/12/13 02:16:56;;;;;;;16.40;7.30;;;;;;;-1.24;89.91;101062.94;6748341;26;35313;-66
2021/12/13 02:18:17;;;;;;;17.75;7.18;;;;;;;-1.29;90.74;101065.75;6748364;26;33906;-65
2021/12/13 02:21:30;;;;;;;14.98;6.80;;;;;;;-1.32;90.69;101063.31;6748252;26;35350;-66
2021/12/13 02:24:36;;;;;;;15.43;7.32;;;;;;;-1.24;90.48;101062.94;6728386;26;34624;-65
2021/12/13 02:27:43;;;;;;;14.85;6.62;;;;;;;-1.27;90.30;101063.09;6748182;26;34650;-68
2021/12/13 02:31:07;;;;;;;15.48;7.22;;;;;;;-1.33;90.34;101067.69;6748484;26;34432;-67
2021/12/13 02:34:14;;;;;;;13.62;6.18;;;;;;;-1.25;90.42;101063.84;6748078;26;34241;-68
2021/12/13 02:37:17;;;;;;;16.75;7.37;;;;;;;-1.23;89.92;101057.66;6742686;26;136008;-68
2021/12/13 02:40:21;;;;;;;14.95;7.60;;;;;;;-1.26;90.15;101056.97;6748212;26;34711;-67
2021/12/13 02:43:30;;;;;;;15.25;8.13;;;;;;;-1.29;90.20;101065.75;6748317;26;34110;-65
2021/12/13 02:46:35;;;;;;;15.85;7.70;;;;;;;-1.32;90.26;101073.72;6749334;26;33998;-67
2021/12/13 02:49:42;;;;;;;15.57;8.27;;;;;;;-1.37;90.63;101081.78;6749561;26;33992;-66
2021/12/13 02:52:45;;;;;;;13.85;7.75;;;;;;;-1.33;90.51;101083.31;6749445;26;34044;-68
2021/12/13 02:55:48;;;;;;;16.10;8.68;;;;;;;-1.28;90.42;101090.87;6729689;26;34428;-68
2021/12/13 02:58:52;;;;;;;15.80;8.35;;;;;;;-1.40;90.95;101078.44;6749369;26;34087;-68
2021/12/13 03:02:07;;;;;;;17.30;8.98;;;;;;;-1.52;90.89;101079.91;6749342;26;33948;-65
2021/12/13 03:05:17;;;;;;;12.57;6.60;;;;;;;-1.56;91.42;101080.13;6729296;26;34579;-66
2021/12/13 03:08:29;;;;;;;15.88;7.22;;;;;;;-1.38;90.70;101087.87;6749375;26;33996;-66
2021/12/13 03:11:33;;;;;;;14.65;7.43;;;;;;;-1.34;90.66;101067.75;6730861;26;34593;-66
2021/12/13 03:14:40;;;;;;;15.95;7.47;;;;;;;-1.29;90.55;101065.75;6749289;26;34025;-68
2021/12/13 03:18:00;;;;;;;13.70;7.25;;;;;;;-1.33;90.53;101059.03;6749327;26;35248;-68
2021/12/13 03:21:51;;;;;;;15.77;7.53;;;;;;;-1.34;90.76;101052.97;6749766;26;34070;-67
2021/12/13 03:25:26;;;;;;;15.63;8.43;;;;;;;-1.25;90.34;101061.25;6740101;26;33855;-66
2021/12/13 03:29:06;;;;;;;15.32;8.43;;;;;;;-1.31;90.77;101055.41;6749482;26;33957;-66
2021/12/13 03:32:12;;;;;;;17.12;9.07;;;;;;;-1.33;90.65;101059.03;6749212;26;33914;-66
2021/12/13 03:35:27;;;;;;;14.13;7.70;;;;;;;-1.40;91.09;101068.03;6749124;26;34708;-66
2021/12/13 03:38:43;;;;;;;15.27;7.95;;;;;;;-1.38;90.97;101074.88;6749286;26;34930;-66
2021/12/13 03:41:50;;;;;;;15.48;8.02;;;;;;;-1.43;91.20;101083.81;6749229;26;33976;-67
2021/12/13 03:44:57;;;;;;;16.90;7.68;;;;;;;-1.45;91.65;101077.84;6729622;26;33998;-66
2021/12/13 03:48:04;;;;;;;13.67;7.20;;;;;;;-1.68;92.54;101072.91;6749220;26;34354;-66
2021/12/13 03:51:11;;;;;;;18.27;7.85;;;;;;;-1.81;94.52;101083.91;6749161;26;35312;-66
2021/12/13 03:54:17;;;;;;;14.43;7.80;;;;;;;-1.79;94.21;101082.06;6749047;26;34065;-66
2021/12/13 03:57:20;;;;;;;14.63;7.53;;;;;;;-1.87;94.28;101070.34;6748949;26;34642;-66
2021/12/13 04:00:30;;;;;;;17.25;8.70;;;;;;;-1.71;94.00;101086.91;6749154;26;34005;-65
2021/12/13 04:03:34;;;;;;;17.60;8.00;;;;;;;-1.60;93.15;101092.44;6749237;26;33979;-66
2021/12/13 04:06:43;;;;;;;18.50;7.95;;;;;;;-1.65;93.61;101086.62;6749245;26;34089;-68
2021/12/13 04:09:50;;;;;;;15.45;7.72;;;;;;;-1.62;93.66;101080.41;6749120;26;34169;-68
2021/12/13 04:12:57;;;;;;;14.55;7.75;;;;;;;-1.60;93.60;101091.59;6749490;26;34610;-68
2021/12/13 04:16:34;;;;;;;16.00;8.48;;;;;;;-1.58;93.72;101090.59;6729292;26;33956;-68
2021/12/13 04:19:50;;;;;;;16.45;8.00;;;;;;;-1.50;93.11;101087.66;6748977;26;33983;-68
2021/12/13 04:22:59;;;;;;;17.98;8.15;;;;;;;-1.53;93.09;101095.59;6749022;26;34634;-67
2021/12/13 04:26:05;;;;;;;17.55;8.05;;;;;;;-1.51;93.26;101091.16;6749308;26;34554;-67
2021/12/13 04:29:21;;;;;;;15.27;7.68;;;;;;;-1.57;93.59;101100.09;6749038;26;34624;-67
2021/12/13 04:32:30;;;;;;;15.02;7.93;;;;;;;-1.71;94.17;101104.28;6749056;26;33896;-67
2021/12/13 04:35:35;;;;;;;14.85;8.07;;;;;;;-1.64;94.65;101092.62;6730129;26;34639;-67
2021/12/13 04:38:49;;;;;;;18.73;8.45;;;;;;;-1.62;94.27;101106.44;6749189;26;34069;-67
2021/12/13 04:41:56;;;;;;;16.35;7.93;;;;;;;-1.66;94.80;101097.94;6748865;26;34248;-67
2021/12/13 04:45:05;;;;;;;15.63;7.90;;;;;;;-1.70;94.95;101101.59;6748768;26;34043;-67
2021/12/13 04:48:12;;;;;;;16.35;8.63;;;;;;;-1.76;96.03;101087.13;6749317;26;34013;-68
2021/12/13 04:51:16;;;;;;;17.75;9.20;;;;;;;-1.65;95.64;101078.81;6749087;26;34036;-67
2021/12/13 04:54:21;;;;;;;20.48;10.30;;;;;;;-1.62;95.45;101090.81;6748936;26;34589;-67
2021/12/13 04:57:24;;;;;;;19.27;10.27;;;;;;;-1.63;95.96;101092.59;6729412;26;34682;-67
2021/12/13 05:00:33;;;;;;;20.17;10.60;;;;;;;-1.61;95.98;101095.97;6749300;26;33914;-67
2021/12/13 05:03:40;;;;;;;18.20;9.38;;;;;;;-1.69;96.04;101095.47;6749412;26;34326;-68
2021/12/13 05:06:43;;;;;;;19.27;9.15;;;;;;;-1.72;96.74;101097.38;6749291;26;34576;-67
2021/12/13 05:09:48;;;;;;;18.60;9.30;;;;;;;-1.65;96.60;101102.22;6729060;26;34487;-67
2021/12/13 05:13:00;;;;;;;19.60;10.48;;;;;;;-1.55;96.35;101113.84;6749166;26;34121;-68
2021/12/13 05:16:09;;;;;;;24.65;9.77;;;;;;;-1.72;96.66;101120.78;6748864;26;33982;-68
2021/12/13 05:19:15;;;;;;;21.73;10.15;;;;;;;-1.68;97.60;101124.94;6748868;26;33961;-67
2021/12/13 05:22:20;;;;;;;20.92;10.20;;;;;;;-1.72;98.18;101128.59;6748714;26;34726;-67
2021/12/13 05:25:27;;;;;;;21.40;10.30;;;;;;;-1.66;98.45;101131.75;6748361;26;34764;-68
2021/12/13 05:28:51;;;;;;;27.75;11.35;;;;;;;-1.67;98.55;101140.47;6748731;26;34734;-67
2021/12/13 05:32:09;;;;;;;22.60;11.35;;;;;;;-1.58;98.67;101145.25;6748726;26;34023;-68
2021/12/13 05:35:32;;;;;;;24.37;11.00;;;;;;;-1.57;98.96;101146.94;6748589;26;33887;-68
2021/12/13 05:38:41;;;;;;;21.98;10.80;;;;;;;-1.51;98.68;101157.06;6748496;26;33898;-67
2021/12/13 05:41:56;;;;;;;25.02;13.13;;;;;;;-1.53;99.04;101158.03;6748710;26;34688;-68
2021/12/13 05:44:59;;;;;;;24.08;13.62;;;;;;;-1.55;99.43;101152.06;6748423;26;34839;-67
2021/12/13 05:48:08;;;;;;;29.02;14.13;;;;;;;-1.52;99.49;101160.56;6748584;26;34153;-67
2021/12/13 05:51:38;;;;;;;25.65;13.25;;;;;;;-1.55;99.83;101168.50;6748583;26;34020;-68
2021/12/13 05:54:47;;;;;;;24.92;14.02;;;;;;;-1.60;100.00;101159.25;6748534;26;33986;-68
2021/12/13 05:57:51;;;;;;;25.00;13.38;;;;;;;-1.53;99.47;101156.28;6748321;26;33942;-67
2021/12/13 06:00:58;;;;;;;23.98;12.93;;;;;;;-1.58;99.90;101155.66;6748425;26;34041;-68
2021/12/13 06:04:07;;;;;;;28.12;13.93;;;;;;;-1.60;99.98;101165.28;6748787;26;33945;-68
2021/12/13 06:07:21;;;;;;;25.40;13.32;;;;;;;-1.49;99.22;101163.00;6748197;26;34027;-67
2021/12/13 06:10:39;;;;;;;26.35;13.62;;;;;;;-1.53;99.08;101160.62;6748194;26;34084;-67
2021/12/13 06:13:46;;;;;;;24.70;12.68;;;;;;;-1.59;99.43;101168.72;6748285;26;33974;-68
2021/12/13 06:17:01;;;;;;;25.00;12.55;;;;;;;-1.55;98.87;101168.50;6748434;26;34273;-68
2021/12/13 06:20:11;;;;;;;26.35;13.40;;;;;;;-1.67;100.00;101178.66;6730224;26;34032;-67
2021/12/13 06:23:22;;;;;;;;;;;;;;;-1.72;100.00;101181.47;6730770;26;34515;-67
2021/12/13 06:26:30;;;;;;;28.65;15.23;;;;;;;-1.70;100.00;101189.19;6749342;26;34739;-67
2021/12/13 06:29:54;;;;;;;26.92;15.40;;;;;;;-1.74;100.00;101183.28;6749829;26;33972;-67
2021/12/13 06:33:06;;;;;;;26.25;15.27;;;;;;;-1.75;100.00;101186.81;6749815;26;34665;-68
2021/12/13 06:36:09;;;;;;;27.58;15.32;;;;;;;-1.74;100.00;101192.87;6748762;26;34643;-68
2021/12/13 06:39:18;;;;;;;28.45;14.23;;;;;;;-1.76;100.00;101195.53;6749173;26;34267;-68
2021/12/13 06:42:26;;;;;;;30.67;15.45;;;;;;;-1.68;100.00;101196.00;6749255;26;34657;-67
2021/12/13 06:45:32;;;;;;;29.83;15.00;;;;;;;-1.68;100.00;101192.56;6748416;26;34355;-68
2021/12/13 06:48:42;;;;;;;32.50;15.90;;;;;;;-1.72;100.00;101197.06;6748673;26;34117;-68
2021/12/13 06:51:53;;;;;;;30.02;15.93;;;;;;;-1.66;100.00;101196.78;6748625;26;34436;-68
2021/12/13 06:55:03;;;;;;;27.30;14.57;;;;;;;-1.67;100.00;101204.66;6729546;26;34431;-68
2021/12/13 06:58:28;;;;;;;30.40;16.30;;;;;;;-1.57;100.00;101200.72;6748938;26;34399;-68
2021/12/13 07:01:35;;;;;;;27.20;14.95;;;;;;;-1.50;100.00;101199.53;6749327;26;34313;-68
2021/12/13 07:04:48;;;;;;;31.08;15.60;;;;;;;-1.52;100.00;101196.16;6749249;26;34032;-68
2021/12/13 07:07:56;;;;;;;28.05;13.55;;;;;;;-1.41;100.00;101197.34;6749247;26;33402;-68
2021/12/13 07:11:06;;;;;;;26.90;12.98;;;;;;;-1.45;100.00;101215.75;6749250;26;33953;-68
2021/12/13 07:14:13;;;;;;;;;;;;;;;-1.37;100.00;101208.44;6729642;26;33931;-67
2021/12/13 07:17:30;;;;;;;28.08;14.85;;;;;;;-1.42;100.00;101198.25;6749187;26;34671;-68
2021/12/13 07:20:40;;;;;;;28.85;15.15;;;;;;;-1.39;100.00;101197.25;6748710;26;34868;-68
2021/12/13 07:23:54;;;;;;;29.12;13.77;;;;;;;-1.40;100.00;101203.37;6749089;26;34871;-68
2021/12/13 07:27:04;;;;;;;28.38;13.40;;;;;;;-1.35;100.00;101207.44;6749145;26;34604;-68
2021/12/13 07:30:11;;;;;;;31.85;13.77;;;;;;;-1.21;100.00;101204.19;6748544;26;34536;-67
2021/12/13 07:33:14;;;;;;;33.45;15.02;;;;;;;-1.26;100.00;101214.00;6748831;26;34105;-68
2021/12/13 07:36:28;;;;;;;28.50;13.65;;;;;;;-1.21;100.00;101213.78;6747829;26;33976;-68
2021/12/13 07:39:32;;;;;;;30.90;13.95;;;;;;;-1.05;100.00;101218.16;6748866;26;33921;-68
2021/12/13 07:42:34;;;;;;;28.80;14.40;;;;;;;-1.04;100.00;101229.44;6749402;26;34623;-68
2021/12/13 07:45:50;;;;;;;27.15;14.65;;;;;;;-0.97;100.00;101213.44;6748374;26;34789;-68
2021/12/13 07:49:03;;;;;;;30.05;15.43;;;;;;;-0.95;100.00;101226.37;6748932;26;34090;-68
2021/12/13 07:52:07;;;;;;;27.33;14.18;;;;;;;-0.89;100.00;101232.16;6748446;26;34176;-68
2021/12/13 07:55:22;;;;;;;34.20;14.25;;;;;;;-0.81;100.00;101242.19;6748729;26;34004;-68
2021/12/13 07:58:46;;;;;;;32.03;14.95;;;;;;;-0.74;99.50;101234.94;6748900;26;34608;-68
2021/12/13 08:01:53;;;;;;;35.47;14.80;;;;;;;-0.78;99.19;101239.44;6749192;26;33926;-68
2021/12/13 08:05:00;;;;;;;32.40;14.15;;;;;;;-0.80;98.42;101236.06;6748982;26;33862;-68
2021/12/13 08:08:06;;;;;;;28.15;13.40;;;;;;;-0.88;98.79;101235.59;6749089;26;34168;-68
2021/12/13 08:11:09;;;;;;;24.10;12.73;;;;;;;-0.92;98.62;101239.28;6749030;26;34051;-68
2021/12/13 08:14:14;;;;;;;29.02;13.48;;;;;;;-0.94;99.13;101241.09;6749279;26;34355;-68
2021/12/13 08:17:31;;;;;;;27.67;13.15;;;;;;;-0.81;98.47;101250.00;6748892;26;34611;-68
2021/12/13 08:20:47;;;;;;;30.02;13.10;;;;;;;-0.76;98.26;101252.38;6729111;26;33993;-68
2021/12/13 08:24:01;;;;;;;28.12;13.23;;;;;;;-0.63;97.42;101253.50;6748452;26;34259;-68
2021/12/13 08:27:21;;;;;;;28.05;13.68;;;;;;;-0.58;97.13;101256.72;6748448;26;34173;-68
2021/12/13 08:30:30;;;;;;;24.67;13.37;;;;;;;-0.63;97.66;101249.09;6749184;26;34686;-68
2021/12/13 08:33:42;;;;;;;28.87;15.00;;;;;;;-0.52;98.00;101256.38;6748908;26;34615;-68
2021/12/13 08:36:47;;;;;;;32.05;14.63;;;;;;;-0.41;97.15;101259.31;6748584;26;34009;-68
2021/12/13 08:39:54;;;;;;;32.97;14.98;;;;;;;-0.41;97.86;101263.69;6748867;26;33954;-68
2021/12/13 08:42:58;;;;;;;29.45;14.00;;;;;;;-0.30;97.79;101270.06;6728658;26;34364;-68
2021/12/13 08:46:02;;;;;;;29.45;14.25;;;;;;;-0.20;97.48;101281.72;6749145;26;34010;-68
2021/12/13 08:49:35;;;;;;;27.50;14.00;;;;;;;-0.02;96.56;101266.88;6748686;26;34494;-68
2021/12/13 08:52:43;;;;;;;30.98;13.90;;;;;;;0.15;95.75;101269.44;6748653;26;34160;-67
2021/12/13 08:56:06;;;;;;;31.27;13.98;;;;;;;0.23;95.34;101279.50;6748142;26;34304;-68
2021/12/13 08:59:20;;;;;;;29.85;14.45;;;;;;;0.28;95.29;101278.34;6748857;26;34386;-68
2021/12/13 09:02:30;;;;;;;30.02;14.15;;;;;;;0.33;94.90;101272.88;6729276;26;34683;-68
2021/12/13 09:06:02;;;;;;;28.70;13.60;;;;;;;0.40;94.75;101269.00;6748926;26;34055;-68
2021/12/13 09:09:24;;;;;;;28.17;14.55;;;;;;;0.62;93.49;101268.72;6698773;26;34894;-68
2021/12/13 09:12:43;;;;;;;26.55;14.35;;;;;;;0.68;93.12;101270.97;6728861;26;32945;-68
2021/12/13 09:15:48;;;;;;;25.23;13.27;;;;;;;0.73;92.97;101261.13;6748318;26;34640;-68
2021/12/13 09:19:28;;;;;;;27.20;13.73;;;;;;;0.82;92.63;101264.06;6748178;26;34138;-68
2021/12/13 09:22:35;;;;;;;26.80;13.30;;;;;;;1.04;91.33;101270.75;6749169;26;33993;-68
2021/12/13 09:25:44;;;;;;;23.40;12.15;;;;;;;1.12;90.79;101268.53;6748757;26;33979;-68
2021/12/13 09:28:51;;;;;;;25.65;12.32;;;;;;;1.23;89.73;101259.16;6748542;26;34895;-68
2021/12/13 09:31:54;;;;;;;25.15;13.23;;;;;;;1.29;90.05;101252.75;6728749;26;34726;-68
2021/12/13 09:35:16;;;;;;;25.70;13.27;;;;;;;1.36;89.48;101256.69;6748877;26;34677;-68
2021/12/13 09:38:37;;;;;;;23.77;13.15;;;;;;;1.28;89.38;101251.91;6748659;26;34288;-68
2021/12/13 09:41:47;;;;;;;23.48;13.23;;;;;;;1.42;89.46;101243.28;6748382;26;34082;-66
2021/12/13 09:45:02;;;;;;;31.87;13.13;;;;;;;1.46;88.98;101243.94;6748487;26;34016;-66
2021/12/13 09:48:29;;;;;;;31.67;12.37;;;;;;;1.60;87.49;101241.34;6748520;26;33958;-66
2021/12/13 09:51:52;;;;;;;26.92;12.63;;;;;;;1.68;86.60;101244.38;6748779;26;34625;-66
2021/12/13 09:55:10;;;;;;;26.35;13.15;;;;;;;1.82;85.87;101241.78;6748275;26;34418;-66
2021/12/13 09:58:13;;;;;;;26.83;12.48;;;;;;;1.77;85.59;101233.37;6748544;26;34709;-66
2021/12/13 10:01:25;;;;;;;24.63;11.60;;;;;;;1.80;85.72;101232.34;6747984;26;34831;-66
2021/12/13 10:04:49;;;;;;;27.90;11.88;;;;;;;1.87;85.36;101228.44;6748080;26;33939;-66
2021/12/13 10:07:55;;;;;;;27.58;11.60;;;;;;;1.98;84.47;101223.41;6748132;26;34112;-66
2021/12/13 10:11:10;;;;;;;22.13;12.10;;;;;;;2.23;82.78;101223.56;6747834;26;34033;-66
2021/12/13 10:14:17;;;;;;;25.98;11.52;;;;;;;2.16;83.20;101220.50;6747901;26;34050;-66
2021/12/13 10:17:23;;;;;;;20.98;10.52;;;;;;;2.30;82.75;101229.28;6728092;26;35248;-66
2021/12/13 10:20:29;;;;;;;22.87;11.50;;;;;;;2.36;81.96;101224.53;6748463;26;34606;-66
2021/12/13 10:23:36;;;;;;;26.58;11.50;;;;;;;2.43;81.74;101233.66;6748042;26;33994;-66
2021/12/13 10:26:59;;;;;;;22.08;11.95;;;;;;;2.35;82.54;101227.22;6747703;26;34004;-67
2021/12/13 10:30:21;;;;;;;27.50;12.90;;;;;;;2.36;82.71;101231.53;6748140;26;33956;-66
2021/12/13 10:33:25;;;;;;;30.88;12.90;;;;;;;2.43;82.78;101225.81;6747672;26;34211;-65
2021/12/13 10:36:29;;;;;;;28.98;12.10;;;;;;;2.42;82.64;101218.88;6747945;26;34003;-67
2021/12/13 10:39:39;;;;;;;25.73;11.88;;;;;;;2.75;81.65;101225.59;6747795;26;34670;-66
2021/12/13 10:42:53;;;;;;;24.63;11.50;;;;;;;2.82;80.94;101219.00;6747681;26;34354;-66
2021/12/13 10:46:04;;;;;;;23.02;11.73;;;;;;;2.81;80.91;101215.53;6747830;26;34035;-66
2021/12/13 10:49:14;;;;;;;23.62;11.63;;;;;;;2.83;81.70;101215.44;6747753;26;34618;-66
2021/12/13 10:52:27;;;;;;;28.17;12.53;;;;;;;2.90;81.32;101214.97;6751486;26;34823;-64
2021/12/13 10:55:36;;;;;;;25.50;12.43;;;;;;;2.79;82.07;101211.34;6750528;26;33951;-64
2021/12/13 10:58:43;;;;;;;21.52;10.77;;;;;;;2.86;81.07;101200.38;6748142;26;33991;-66
2021/12/13 11:01:53;;;;;;;20.67;10.88;;;;;;;2.84;80.79;101204.03;6727396;26;34705;-66
2021/12/13 11:05:01;;;;;;;20.80;11.25;;;;;;;2.88;80.57;101206.37;6747850;26;34217;-66
2021/12/13 11:08:07;;;;;;;22.75;11.18;;;;;;;2.83;81.39;101202.34;6748827;26;34441;-66
2021/12/13 11:11:24;;;;;;;23.83;10.77;;;;;;;2.92;80.21;101209.63;6749128;26;34144;-66
2021/12/13 11:14:27;;;;;;;22.83;10.85;;;;;;;2.82;79.62;101204.13;6748726;26;34329;-66
2021/12/13 11:17:32;;;;;;;25.65;10.90;;;;;;;2.92;80.08;101193.91;6749005;26;34204;-66
2021/12/13 11:20:49;;;;;;;25.75;10.95;;;;;;;2.91;79.57;101197.44;6748764;26;34757;-66
2021/12/13 11:23:52;;;;;;;25.08;11.45;;;;;;;2.96;78.70;101198.00;6748776;26;34116;-66
2021/12/13 11:27:05;;;;;;;23.17;11.20;;;;;;;3.01;78.77;101190.66;6748903;26;33955;-66
2021/12/13 11:30:15;;;;;;;20.05;10.93;;;;;;;3.08;79.03;101202.47;6748877;26;34692;-66
2021/12/13 11:33:37;;;;;;;20.88;10.85;;;;;;;3.01;79.20;101209.03;6748701;26;34035;-66
2021/12/13 11:37:04;;;;;;;21.17;10.85;;;;;;;3.05;79.60;101202.63;6748205;26;34257;-66
2021/12/13 11:40:49;;;;;;;19.67;10.45;;;;;;;3.15;78.61;101201.09;6748681;26;33990;-65
2021/12/13 11:44:03;;;;;;;26.80;11.12;;;;;;;3.17;79.50;101207.09;6748868;26;33964;-65
2021/12/13 11:47:40;;;;;;;22.05;10.65;;;;;;;3.33;77.99;101205.16;6748695;26;34629;-65
2021/12/13 11:51:07;;;;;;;20.83;10.35;;;;;;;3.45;77.48;101200.84;6748444;26;34702;-66
2021/12/13 11:54:38;;;;;;;20.15;10.50;;;;;;;3.48;76.50;101198.06;6748696;26;33958;-65
2021/12/13 11:58:19;;;;;;;21.23;10.90;;;;;;;3.36;77.17;101202.31;6748672;26;33956;-65
2021/12/13 12:01:48;;;;;;;21.98;10.02;;;;;;;3.38;nan;101204.84;6749224;26;34207;-66
2021/12/13 12:05:27;;;;;;;20.42;9.15;;;;;;;3.80;75.95;101190.63;6745277;26;34779;-66
2021/12/13 12:08:58;;;;;;;19.48;9.60;;;;;;;4.11;73.92;101194.59;6733357;26;34000;-66
2021/12/13 12:12:25;;;;;;;19.08;9.45;;;;;;;4.21;72.92;101196.47;6748959;26;34560;-66
2021/12/13 12:15:28;;;;;;;25.02;10.07;;;;;;;4.22;73.28;101194.69;6748527;26;33972;-66
2021/12/13 12:18:35;;;;;;;24.17;9.63;;;;;;;4.08;73.33;101193.03;6748223;26;34702;-66
2021/12/13 12:21:45;;;;;;;20.30;10.10;;;;;;;4.00;74.10;101195.34;6748700;26;34291;-65
2021/12/13 12:24:51;;;;;;;18.52;9.88;;;;;;;4.03;73.67;101195.12;6748669;26;33992;-66
2021/12/13 12:28:20;;;;;;;20.55;9.80;;;;;;;3.83;74.99;101188.63;6748621;26;34368;-66
2021/12/13 12:31:44;;;;;;;19.55;10.48;;;;;;;4.05;74.53;101201.12;6748754;26;33923;-65
2021/12/13 12:34:49;;;;;;;22.02;10.50;;;;;;;3.80;75.30;101193.25;6748294;26;34073;-65
2021/12/13 12:38:00;;;;;;;18.90;10.23;;;;;;;3.86;75.98;101200.72;6748573;26;34043;-66
2021/12/13 12:41:06;;;;;;;19.83;9.27;;;;;;;3.92;74.70;101195.84;6748781;26;34357;-66
2021/12/13 12:44:15;;;;;;;18.75;9.93;;;;;;;3.89;74.80;101196.06;6748281;26;34300;-66
2021/12/13 12:47:18;;;;;;;24.30;10.40;;;;;;;3.69;75.43;101185.25;6748577;26;34083;-65
2021/12/13 12:50:30;;;;;;;18.80;9.57;;;;;;;3.53;75.89;101188.09;6748673;26;34152;-65
2021/12/13 12:53:38;;;;;;;19.67;8.88;;;;;;;3.54;75.68;101192.38;6748915;26;33926;-64
2021/12/13 12:56:44;;;;;;;19.58;10.10;;;;;;;3.57;76.16;101188.72;6748590;26;34361;-64
2021/12/13 12:59:51;;;;;;;22.67;10.13;;;;;;;3.63;75.80;101183.06;6748620;26;34185;-65
2021/12/13 13:02:59;;;;;;;19.77;9.52;;;;;;;3.48;76.22;101184.94;6749202;26;34913;-64
2021/12/13 13:06:13;;;;;;;17.67;9.45;;;;;;;3.48;76.48;101177.91;6748614;26;34133;-65
2021/12/13 13:09:16;;;;;;;20.15;8.90;;;;;;;3.30;77.04;101184.34;6748244;26;34037;-65
2021/12/13 13:12:25;;;;;;;19.90;9.48;;;;;;;3.30;77.08;101192.22;6729519;26;34017;-65
2021/12/13 13:15:35;;;;;;;20.12;8.43;;;;;;;3.37;76.62;101197.91;6748657;26;34354;-64
2021/12/13 13:18:40;;;;;;;21.73;8.63;;;;;;;3.34;76.04;101213.88;6748534;26;34106;-65
2021/12/13 13:21:44;;;;;;;16.90;8.95;;;;;;;3.22;76.62;101205.00;6748530;26;34032;-65
2021/12/13 13:24:52;;;;;;;19.52;9.50;;;;;;;3.33;76.53;101205.16;6749066;26;33972;-65
2021/12/13 13:27:55;;;;;;;18.95;9.02;;;;;;;3.27;76.55;101215.19;6747870;26;34107;-64
2021/12/13 13:31:26;;;;;;;15.38;8.40;;;;;;;3.36;75.95;101217.22;6748712;26;33060;-67
2021/12/13 13:34:36;;;;;;;16.58;8.52;;;;;;;3.33;75.89;101220.91;6748402;26;34817;-66
2021/12/13 13:37:41;;;;;;;19.80;8.55;;;;;;;3.23;76.30;101226.84;6748546;26;34002;-65
2021/12/13 13:40:44;;;;;;;20.83;8.55;;;;;;;3.28;76.28;101237.88;6748341;26;34097;-64
2021/12/13 13:43:49;;;;;;;15.98;8.75;;;;;;;3.37;75.24;101237.25;6748263;26;34306;-66
2021/12/13 13:47:09;;;;;;;15.77;7.90;;;;;;;3.33;74.83;101235.78;6748506;26;34166;-64
2021/12/13 13:50:29;;;;;;;16.15;8.10;;;;;;;3.16;75.36;101239.50;6728247;26;34665;-65
2021/12/13 13:53:38;;;;;;;19.70;8.97;;;;;;;3.23;75.05;101238.16;6728539;26;34043;-64
2021/12/13 13:56:45;;;;;;;15.45;7.85;;;;;;;3.22;74.44;101235.62;6748264;26;34062;-66
2021/12/13 13:59:49;;;;;;;15.50;7.95;;;;;;;3.18;74.71;101237.63;6748327;26;34616;-66
2021/12/13 14:02:52;;;;;;;17.35;7.85;;;;;;;3.06;74.96;101244.50;6748438;26;33982;-66
2021/12/13 14:05:57;;;;;;;21.77;8.07;;;;;;;3.07;74.75;101240.09;6748149;26;33997;-65
2021/12/13 14:09:11;;;;;;;18.30;8.05;;;;;;;3.05;74.95;101248.03;6747850;26;35239;-65
2021/12/13 14:12:25;;;;;;;15.85;7.45;;;;;;;2.95;75.39;101239.09;6748201;26;33976;-65
2021/12/13 14:15:35;;;;;;;15.98;7.95;;;;;;;2.84;75.79;101231.09;6748420;26;33932;-65
2021/12/13 14:18:38;;;;;;;16.30;7.68;;;;;;;2.69;76.74;101236.44;6747825;26;34431;-64
2021/12/13 14:21:45;;;;;;;17.27;8.10;;;;;;;2.62;76.88;101241.22;6748092;26;33925;-64
2021/12/13 14:24:48;;;;;;;17.40;7.82;;;;;;;2.62;77.09;101241.22;6747772;26;34662;-64
2021/12/13 14:27:50;;;;;;;18.02;7.85;;;;;;;2.47;77.88;101243.00;6747997;26;34094;-65
2021/12/13 14:31:18;;;;;;;18.00;8.48;;;;;;;2.46;77.88;101241.34;6747709;26;33967;-64
2021/12/13 14:34:24;;;;;;;18.12;8.50;;;;;;;2.47;78.20;101239.59;6747891;26;34491;-65
2021/12/13 14:37:33;;;;;;;20.85;7.60;;;;;;;2.39;78.80;101240.03;6747077;26;34685;-65
2021/12/13 14:40:54;;;;;;;20.10;7.90;;;;;;;2.37;78.94;101251.56;6748763;26;34675;-65
2021/12/13 14:44:02;;;;;;;14.18;7.82;;;;;;;2.33;79.21;101248.25;6749080;26;34639;-64
2021/12/13 14:47:11;;;;;;;15.88;7.60;;;;;;;2.29;79.19;101246.78;6749578;26;34760;-64